Time;durP1;ratioP1;P1;durP2;ratioP2;P2;SDS_P1;SDS_P2;PMS_P1;PMS_P2;Temp;Humidity;BMP_temperature;BMP_pressure;BME280_temperature;BME280_humidity;BME280_pressure;Samples;Min_cycle;Max_cycle;Signal;HPM_P1;HPM_P2
2021/06/29 00:01:55;;;;;;;30.75;16.80;;;;;;;15.92;100.00;101510.69;4985996;28;20029;-56
2021/06/29 00:04:20;;;;;;;34.72;16.45;;;;;;;15.96;100.00;101518.47;4989948;28;20030;-54
2021/06/29 00:06:46;;;;;;;36.03;16.15;;;;;;;16.03;100.00;101518.97;4986929;28;20050;-55
2021/06/29 00:09:12;;;;;;;33.60;15.40;;;;;;;16.07;100.00;101520.47;4988356;28;20494;-57
2021/06/29 00:11:37;;;;;;;;;;;;;;;16.11;100.00;101510.38;4988773;28;20030;-57
2021/06/29 00:14:03;;;;;;;37.87;14.60;;;;;;;16.16;100.00;101505.59;4991987;28;19917;-57
2021/06/29 00:16:28;;;;;;;28.17;13.25;;;;;;;16.18;100.00;101497.41;4991193;28;20289;-59
2021/06/29 00:18:53;;;;;;;34.13;14.27;;;;;;;16.20;100.00;101496.34;4990846;28;20386;-56
2021/06/29 00:21:19;;;;;;;32.53;14.45;;;;;;;16.18;100.00;101487.50;4989973;28;20030;-57
2021/06/29 00:23:44;;;;;;;36.47;13.70;;;;;;;16.19;100.00;101483.00;4988839;28;20312;-57
2021/06/29 00:26:10;;;;;;;38.23;14.50;;;;;;;16.19;100.00;101486.53;4987013;28;20546;-57
2021/06/29 00:28:36;;;;;;;37.95;15.65;;;;;;;16.21;100.00;101486.44;4985655;28;20052;-57
2021/06/29 00:31:02;;;;;;;45.35;16.13;;;;;;;16.22;100.00;101478.28;4988937;28;20042;-57
2021/06/29 00:33:28;;;;;;;41.83;15.57;;;;;;;16.23;100.00;101480.00;4989240;28;20331;-57
2021/06/29 00:35:53;;;;;;;48.33;16.75;;;;;;;16.23;100.00;101480.00;4985884;28;20404;-54
2021/06/29 00:38:18;;;;;;;45.55;15.55;;;;;;;16.26;100.00;101478.94;4990644;28;20026;-56
2021/06/29 00:40:44;;;;;;;43.28;15.27;;;;;;;16.27;100.00;101476.13;4989013;28;20053;-58
2021/06/29 00:43:09;;;;;;;44.55;16.55;;;;;;;16.26;100.00;101485.19;4992995;28;20026;-57
2021/06/29 00:45:34;;;;;;;45.05;17.58;;;;;;;16.26;100.00;101479.78;4986672;28;20104;-54
2021/06/29 00:48:00;;;;;;;57.33;19.13;;;;;;;16.26;100.00;101485.19;4992233;28;20048;-57
2021/06/29 00:50:25;;;;;;;53.03;18.15;;;;;;;16.25;100.00;101483.44;4990421;28;20088;-56
2021/06/29 00:52:50;;;;;;;50.58;17.33;;;;;;;16.26;100.00;101487.00;4992417;28;20030;-55
2021/06/29 00:55:16;;;;;;;47.15;18.30;;;;;;;16.26;100.00;101487.88;4987492;28;20052;-55
2021/06/29 00:57:44;;;;;;;56.30;20.38;;;;;;;16.26;100.00;101479.78;4986701;28;21094;-57
2021/06/29 01:00:10;;;;;;;67.30;21.43;;;;;;;16.22;100.00;101474.69;4991448;28;20164;-57
2021/06/29 01:02:35;;;;;;;;;;;;;;;16.22;100.00;101470.19;4984009;28;20292;-56
2021/06/29 01:05:06;;;;;;;57.83;21.40;;;;;;;16.26;100.00;101460.94;4989491;28;19933;-57
2021/06/29 01:07:31;;;;;;;61.77;22.40;;;;;;;16.27;100.00;101454.59;4988172;28;20037;-56
2021/06/29 01:09:56;;;;;;;59.78;22.40;;;;;;;16.29;100.00;101450.00;4988319;28;20399;-56
2021/06/29 01:12:22;;;;;;;63.90;24.60;;;;;;;16.32;100.00;101456.16;4991400;28;20494;-55
2021/06/29 01:14:47;;;;;;;64.88;21.15;;;;;;;16.35;100.00;101450.53;4986765;28;20045;-55
2021/06/29 01:17:13;;;;;;;55.90;22.45;;;;;;;16.37;100.00;101441.41;4995337;28;20084;-54
2021/06/29 01:19:48;;;;;;;65.10;22.63;;;;;;;16.35;100.00;101443.34;4990859;28;20091;-55
2021/06/29 01:22:15;;;;;;;74.00;24.30;;;;;;;16.34;100.00;101440.72;4991667;28;20092;-55
2021/06/29 01:24:43;;;;;;;66.53;23.63;;;;;;;16.31;100.00;101436.41;4991680;28;20087;-56
2021/06/29 01:27:22;;;;;;;75.83;26.73;;;;;;;16.32;100.00;101440.00;4994543;28;20284;-55
2021/06/29 01:32:22;;;;;;;74.13;25.80;;;;;;;16.30;100.00;101427.50;4992963;28;21033;-56
2021/06/29 01:34:48;;;;;;;;;;;;;;;16.30;100.00;101430.19;4994135;28;20296;-57
2021/06/29 01:37:14;;;;;;;70.60;24.50;;;;;;;16.32;100.00;101437.31;4989992;28;20343;-56
2021/06/29 01:39:52;;;;;;;72.80;26.07;;;;;;;16.30;100.00;101435.56;4989693;28;20117;-55
2021/06/29 01:42:18;;;;;;;74.57;27.53;;;;;;;16.30;100.00;101443.66;4989202;28;20739;-54
2021/06/29 01:44:43;;;;;;;73.95;26.92;;;;;;;16.27;100.00;101438.44;4993602;28;20272;-56
2021/06/29 01:47:11;;;;;;;75.03;26.83;;;;;;;16.28;100.00;101436.63;4991977;28;20088;-55
2021/06/29 01:49:36;;;;;;;64.10;24.43;;;;;;;16.26;100.00;101439.41;4992780;28;20060;-56
2021/06/29 01:52:02;;;;;;;64.85;24.45;;;;;;;16.26;100.00;101442.09;4993598;28;20316;-55
2021/06/29 01:54:27;;;;;;;68.72;24.38;;;;;;;16.23;100.00;101438.75;4991440;28;20060;-56
2021/06/29 01:56:53;;;;;;;69.20;24.60;;;;;;;16.22;100.00;101445.97;4993181;28;20030;-55
2021/06/29 01:59:20;;;;;;;63.10;22.05;;;;;;;16.19;100.00;101446.16;4992387;28;20025;-57
2021/06/29 02:01:46;;;;;;;63.87;23.17;;;;;;;16.17;100.00;101437.31;4992862;28;21246;-57
2021/06/29 02:04:12;;;;;;;66.88;22.52;;;;;;;16.19;100.00;101431.84;4991455;28;20926;-56
2021/06/29 02:06:39;;;;;;;61.17;23.03;;;;;;;16.19;100.00;101419.25;4992431;28;20044;-56
2021/06/29 02:09:09;;;;;;;49.20;19.27;;;;;;;16.18;100.00;101420.19;4990186;28;20295;-56
2021/06/29 02:11:39;;;;;;;66.17;24.20;;;;;;;16.19;100.00;101416.53;4992530;28;20292;-56
2021/06/29 02:14:05;;;;;;;59.03;23.10;;;;;;;16.20;100.00;101407.50;4995893;28;20297;-56
2021/06/29 02:16:31;;;;;;;56.23;22.90;;;;;;;16.22;100.00;101402.00;4985360;28;20281;-55
2021/06/29 02:18:56;;;;;;;70.75;24.80;;;;;;;16.21;100.00;101402.97;4997162;28;20291;-57
2021/06/29 02:21:21;;;;;;;55.42;22.73;;;;;;;16.21;100.00;101397.59;4990930;28;20033;-55
2021/06/29 02:23:47;;;;;;;54.85;24.23;;;;;;;16.20;100.00;101401.28;4992381;28;20140;-56
2021/06/29 02:26:12;;;;;;;65.85;24.40;;;;;;;16.18;100.00;101403.19;4993107;28;20423;-56
2021/06/29 02:28:37;;;;;;;61.70;25.60;;;;;;;16.16;100.00;101389.84;4992324;28;20117;-56
2021/06/29 02:31:03;;;;;;;58.83;23.75;;;;;;;16.16;100.00;101386.28;4990816;28;20074;-56
2021/06/29 02:33:28;;;;;;;59.28;22.55;;;;;;;16.12;100.00;101377.53;4985164;28;20026;-56
2021/06/29 02:35:53;;;;;;;54.67;23.58;;;;;;;16.08;100.00;101367.94;4993555;28;20076;-57
2021/06/29 02:38:19;;;;;;;52.70;21.73;;;;;;;16.03;100.00;101367.38;4989261;28;20719;-56
2021/06/29 02:40:44;;;;;;;46.20;19.75;;;;;;;15.97;100.00;101372.19;4993859;28;20052;-56
2021/06/29 02:43:09;;;;;;;48.67;20.25;;;;;;;15.92;100.00;101371.63;4996094;28;20023;-57
2021/06/29 02:45:35;;;;;;;50.55;23.15;;;;;;;15.86;100.00;101377.44;4991175;28;20538;-56
2021/06/29 02:48:01;;;;;;;44.95;20.02;;;;;;;15.82;100.00;101378.53;4995417;28;20272;-57
2021/06/29 02:50:27;;;;;;;32.80;17.77;;;;;;;15.81;100.00;101368.72;4991437;28;20029;-57
2021/06/29 02:52:52;;;;;;;43.80;20.98;;;;;;;15.78;100.00;101371.63;4991233;28;20324;-57
2021/06/29 02:55:18;;;;;;;41.58;19.90;;;;;;;15.72;100.00;101372.88;4990833;28;20548;-56
2021/06/29 02:57:44;;;;;;;40.92;19.45;;;;;;;15.67;100.00;101370.47;4994939;28;20083;-57
2021/06/29 03:00:15;;;;;;;39.17;19.57;;;;;;;15.65;100.00;101356.25;4989401;28;20040;-56
2021/06/29 03:02:40;;;;;;;44.37;20.37;;;;;;;15.63;100.00;101358.19;4990289;28;20277;-55
2021/06/29 03:05:06;;;;;;;39.65;19.40;;;;;;;15.67;100.00;101353.47;4994594;28;20298;-56
2021/06/29 03:07:32;;;;;;;;;;;;;;;15.66;100.00;101362.53;4986606;28;20029;-57
2021/06/29 03:09:57;;;;;;;34.93;17.57;;;;;;;15.67;100.00;101365.09;4988508;28;19952;-57
2021/06/29 03:12:23;;;;;;;35.65;20.60;;;;;;;15.67;100.00;101358.84;5002918;28;20342;-57
2021/06/29 03:14:56;;;;;;;41.78;20.85;;;;;;;15.65;100.00;101353.56;4989463;28;20104;-58
2021/06/29 03:17:21;;;;;;;37.27;20.67;;;;;;;15.67;100.00;101358.84;4988211;28;20361;-57
2021/06/29 03:19:47;;;;;;;40.72;19.30;;;;;;;15.65;100.00;101356.25;4991997;28;20641;-57
2021/06/29 03:22:12;;;;;;;38.05;21.38;;;;;;;15.65;100.00;101350.88;4993674;28;20034;-57
2021/06/29 03:24:38;;;;;;;44.28;22.10;;;;;;;15.63;100.00;101355.50;4986900;28;20026;-56
2021/06/29 03:27:03;;;;;;;36.80;19.42;;;;;;;15.65;100.00;101358.94;4991068;28;20034;-54
2021/06/29 03:29:29;;;;;;;35.67;20.63;;;;;;;15.66;100.00;101359.84;4990320;28;20068;-56
2021/06/29 03:31:54;;;;;;;38.67;21.60;;;;;;;15.65;100.00;101361.63;4987911;28;20829;-57
2021/06/29 03:34:19;;;;;;;36.95;21.00;;;;;;;15.67;100.00;101365.09;4987332;28;20045;-56
2021/06/29 03:36:45;;;;;;;42.38;21.00;;;;;;;15.68;100.00;101360.56;4989727;28;20489;-56
2021/06/29 03:39:11;;;;;;;41.63;21.45;;;;;;;15.71;100.00;101362.22;4995446;28;20138;-56
2021/06/29 03:41:36;;;;;;;38.95;20.83;;;;;;;15.72;100.00;101361.25;4988023;28;20065;-56
2021/06/29 03:44:02;;;;;;;29.75;19.42;;;;;;;15.74;100.00;101364.72;4991787;28;20049;-56
2021/06/29 03:46:28;;;;;;;33.03;20.90;;;;;;;15.74;100.00;101365.59;4990875;28;20549;-56
2021/06/29 03:48:53;;;;;;;38.47;21.90;;;;;;;15.75;100.00;101371.81;4992690;28;20030;-56
2021/06/29 03:51:19;;;;;;;36.92;21.20;;;;;;;15.77;100.00;101375.28;4989871;28;20022;-56
2021/06/29 03:53:45;;;;;;;31.30;21.67;;;;;;;15.81;100.00;101368.72;4991937;28;20288;-58
2021/06/29 03:56:23;;;;;;;40.63;23.47;;;;;;;15.84;100.00;101360.50;4984431;28;20779;-56
2021/06/29 03:58:57;;;;;;;38.40;21.80;;;;;;;15.89;100.00;101360.22;4991347;28;20285;-57
2021/06/29 04:01:24;;;;;;;40.53;23.23;;;;;;;15.88;100.00;101361.16;4989490;28;20339;-57
2021/06/29 04:03:54;;;;;;;38.20;23.53;;;;;;;15.87;100.00;101354.91;4991440;28;20284;-57
2021/06/29 04:06:23;;;;;;;28.43;19.90;;;;;;;15.88;100.00;101356.63;4989592;28;20362;-56
2021/06/29 04:08:49;;;;;;;41.83;22.17;;;;;;;15.88;100.00;101351.25;4989847;28;20303;-56
2021/06/29 04:11:15;;;;;;;37.40;23.25;;;;;;;15.90;100.00;101353.88;4989902;28;21132;-56
2021/06/29 04:13:40;;;;;;;38.70;20.85;;;;;;;15.90;100.00;101357.41;4989951;28;20045;-55
2021/06/29 04:16:05;;;;;;;32.28;20.88;;;;;;;15.94;100.00;101350.00;4993060;28;20078;-56
2021/06/29 04:18:31;;;;;;;35.28;21.75;;;;;;;15.95;100.00;101357.97;4994181;28;20034;-55
2021/06/29 04:20:56;;;;;;;40.65;22.50;;;;;;;15.93;100.00;101354.53;5001517;28;20037;-57
2021/06/29 04:23:22;;;;;;;40.65;23.05;;;;;;;15.94;100.00;101356.22;4993365;28;20354;-56
2021/06/29 04:25:47;;;;;;;35.40;22.80;;;;;;;15.93;100.00;101354.53;4990926;28;20033;-57
2021/06/29 04:28:12;;;;;;;44.42;24.85;;;;;;;15.96;100.00;101350.78;4990740;28;20033;-57
2021/06/29 04:30:38;;;;;;;41.63;24.83;;;;;;;15.95;100.00;101347.19;4990004;28;20061;-56
2021/06/29 04:33:03;;;;;;;39.97;24.20;;;;;;;15.96;100.00;101354.31;4991878;28;20061;-56
2021/06/29 04:35:29;;;;;;;40.65;23.73;;;;;;;16.00;100.00;101359.50;4986452;28;20430;-56
2021/06/29 04:37:55;;;;;;;42.50;26.38;;;;;;;16.03;100.00;101361.97;4989342;28;20905;-57
2021/06/29 04:40:20;;;;;;;40.95;25.23;;;;;;;16.05;100.00;101369.03;4992875;28;20120;-56
2021/06/29 04:42:46;;;;;;;43.40;25.27;;;;;;;16.10;100.00;101376.75;4984838;28;20398;-57
2021/06/29 04:45:12;;;;;;;;;;;;;;;16.12;100.00;101380.22;4989307;28;20121;-54
2021/06/29 04:47:45;;;;;;;38.80;24.10;;;;;;;16.14;100.00;101381.84;4984819;28;20660;-56
2021/06/29 04:50:11;;;;;;;40.00;24.43;;;;;;;16.18;100.00;101385.19;4992826;28;20033;-55
2021/06/29 04:52:37;;;;;;;32.70;23.83;;;;;;;16.20;100.00;101380.59;4989129;28;20276;-57
2021/06/29 04:55:03;;;;;;;41.90;23.92;;;;;;;16.21;100.00;101385.00;4988786;28;20030;-56
2021/06/29 04:57:29;;;;;;;38.43;23.87;;;;;;;16.23;100.00;101377.72;4993282;28;20606;-57
2021/06/29 04:59:54;;;;;;;40.95;24.48;;;;;;;16.24;100.00;101381.25;4985401;28;20435;-57
2021/06/29 05:02:19;;;;;;;36.17;23.60;;;;;;;16.26;100.00;101380.19;4986080;28;20034;-57
2021/06/29 05:04:45;;;;;;;39.50;24.90;;;;;;;16.26;100.00;101380.19;4988380;28;20076;-56
2021/06/29 05:07:10;;;;;;;39.72;25.88;;;;;;;16.27;100.00;101381.91;4992437;28;20033;-56
2021/06/29 05:09:35;;;;;;;45.10;27.83;;;;;;;16.28;100.00;101386.34;4990574;28;20038;-57
2021/06/29 05:12:01;;;;;;;40.60;25.67;;;;;;;16.31;100.00;101385.25;4990714;28;20037;-56
2021/06/29 05:14:26;;;;;;;38.53;23.80;;;;;;;16.35;100.00;101386.81;4987060;28;20068;-57
2021/06/29 05:16:52;;;;;;;36.83;24.13;;;;;;;16.38;100.00;101381.19;4984446;28;20473;-56
2021/06/29 05:19:17;;;;;;;40.65;23.73;;;;;;;16.39;100.00;101385.63;4991534;28;20040;-57
2021/06/29 05:21:42;;;;;;;35.13;24.42;;;;;;;16.41;100.00;101389.09;4985487;28;20109;-57
2021/06/29 05:24:08;;;;;;;44.03;28.15;;;;;;;16.43;100.00;101391.66;4991246;28;20169;-57
2021/06/29 05:26:34;;;;;;;45.38;25.88;;;;;;;16.44;100.00;101388.84;4990123;28;20029;-57
2021/06/29 05:29:01;;;;;;;41.70;26.13;;;;;;;16.47;100.00;101395.91;4990855;28;20184;-57
2021/06/29 05:31:26;;;;;;;40.23;25.97;;;;;;;16.50;100.00;101387.59;4988835;28;20520;-56
2021/06/29 05:33:51;;;;;;;39.55;26.50;;;;;;;16.55;100.00;101380.06;4986371;28;20321;-57
2021/06/29 05:36:17;;;;;;;37.42;25.88;;;;;;;16.59;100.00;101389.69;4989015;28;20034;-56
2021/06/29 05:38:42;;;;;;;42.33;26.37;;;;;;;16.61;100.00;101387.75;4988217;28;20030;-56
2021/06/29 05:41:07;;;;;;;40.60;26.00;;;;;;;16.60;100.00;101380.63;4991257;28;20073;-53
2021/06/29 05:43:33;;;;;;;47.25;26.35;;;;;;;16.63;100.00;101392.19;4987287;28;20671;-55
2021/06/29 05:45:59;;;;;;;34.25;24.83;;;;;;;16.64;100.00;101394.75;4990801;28;20018;-57
2021/06/29 05:48:27;;;;;;;40.28;24.92;;;;;;;16.67;100.00;101396.38;4989379;28;20022;-55
2021/06/29 05:50:53;;;;;;;34.77;23.57;;;;;;;16.66;100.00;101390.13;4987478;28;20092;-56
2021/06/29 05:53:18;;;;;;;36.20;24.13;;;;;;;16.64;100.00;101389.38;4990043;28;20289;-56
2021/06/29 05:55:44;;;;;;;35.33;22.57;;;;;;;16.63;100.00;101390.34;4988762;28;20092;-56
2021/06/29 05:58:09;;;;;;;34.60;23.20;;;;;;;16.62;100.00;101391.28;4989720;28;20227;-56
2021/06/29 06:00:34;;;;;;;37.92;22.40;;;;;;;16.63;100.00;101392.19;4992217;28;20033;-55
2021/06/29 06:02:59;;;;;;;36.50;21.75;;;;;;;16.66;100.00;101397.34;4995428;28;20308;-54
2021/06/29 06:05:25;;;;;;;;;;;;;;;16.67;100.00;101404.47;4990061;28;20109;-57
2021/06/29 06:07:54;;;;;;;35.30;22.07;;;;;;;16.73;100.00;101406.72;4990076;28;19944;-56
2021/06/29 06:10:19;;;;;;;33.97;21.00;;;;;;;16.79;100.00;101411.69;4995146;28;20505;-57
2021/06/29 06:12:45;;;;;;;35.95;20.75;;;;;;;16.83;100.00;101406.97;4991603;28;20289;-56
2021/06/29 06:15:10;;;;;;;31.38;20.35;;;;;;;16.83;100.00;101410.53;4992858;28;20042;-57
2021/06/29 06:17:37;;;;;;;33.42;20.80;;;;;;;16.82;100.00;101406.13;4989323;28;20405;-57
2021/06/29 06:20:05;;;;;;;32.73;20.47;;;;;;;16.80;100.00;101416.13;4995079;28;20088;-56
2021/06/29 06:22:31;;;;;;;31.37;18.97;;;;;;;16.77;100.00;101406.41;4992185;28;20288;-56
2021/06/29 06:24:58;;;;;;;32.22;19.83;;;;;;;16.73;100.00;101409.44;4989929;28;20324;-55
2021/06/29 06:27:24;;;;;;;32.13;20.13;;;;;;;16.70;100.00;101401.56;4988067;28;20030;-57
2021/06/29 06:29:49;;;;;;;34.05;19.70;;;;;;;16.71;100.00;101411.34;4986564;28;20374;-56
2021/06/29 06:32:14;;;;;;;33.47;20.63;;;;;;;16.69;100.00;101410.63;4992481;28;20038;-57
2021/06/29 06:34:40;;;;;;;36.10;20.23;;;;;;;16.68;100.00;101411.56;4985899;28;20041;-57
2021/06/29 06:37:05;;;;;;;32.28;20.15;;;;;;;16.68;100.00;101408.88;4990205;28;20034;-55
2021/06/29 06:39:31;;;;;;;30.88;20.63;;;;;;;16.69;100.00;101416.00;4982704;28;20625;-56
2021/06/29 06:41:56;;;;;;;38.05;20.13;;;;;;;16.69;100.00;101411.47;4983251;28;20035;-56
2021/06/29 06:44:21;;;;;;;31.40;18.67;;;;;;;16.68;100.00;101408.88;4983779;28;20034;-55
2021/06/29 06:46:47;;;;;;;;;;;;;;;16.68;100.00;101404.34;4986735;28;20560;-57
2021/06/29 06:49:12;;;;;;;31.50;18.00;;;;;;;16.66;100.00;101408.13;4991829;28;19956;-56
2021/06/29 06:51:37;;;;;;;33.88;19.48;;;;;;;16.65;100.00;101409.97;4984218;28;20037;-55
2021/06/29 06:54:03;;;;;;;32.55;20.90;;;;;;;16.62;100.00;101410.16;4988922;28;20023;-56
2021/06/29 06:56:28;;;;;;;41.33;20.88;;;;;;;16.66;100.00;101405.41;4983857;28;20030;-57
2021/06/29 06:58:54;;;;;;;33.67;21.17;;;;;;;16.73;100.00;101412.13;4990604;28;20122;-56
2021/06/29 07:01:19;;;;;;;28.92;18.50;;;;;;;16.76;100.00;101407.38;4991035;28;20500;-56
2021/06/29 07:03:45;;;;;;;28.90;19.77;;;;;;;16.84;100.00;101404.19;4986204;28;20025;-56
2021/06/29 07:06:12;;;;;;;33.33;18.93;;;;;;;16.85;100.00;101399.66;4989513;28;20069;-56
2021/06/29 07:08:37;;;;;;;27.47;18.47;;;;;;;16.84;100.00;101396.09;4986298;28;20492;-56
2021/06/29 07:11:03;;;;;;;25.15;16.85;;;;;;;16.83;100.00;101399.75;4992038;28;20292;-56
2021/06/29 07:13:28;;;;;;;;;;;;;;;16.88;100.00;101404.84;4990006;28;20025;-57
2021/06/29 07:15:54;;;;;;;23.43;18.43;;;;;;;16.91;100.00;101400.09;4990260;28;19921;-57
2021/06/29 07:18:20;;;;;;;28.58;18.02;;;;;;;16.95;100.00;101408.88;4988947;28;20759;-56
2021/06/29 07:20:46;;;;;;;30.75;18.20;;;;;;;16.97;100.00;101406.06;4990926;28;20022;-57
2021/06/29 07:23:12;;;;;;;28.63;19.60;;;;;;;16.99;100.00;101406.81;4988209;28;20030;-57
2021/06/29 07:25:38;;;;;;;28.50;19.27;;;;;;;17.03;100.00;101411.91;4986333;28;20319;-58
2021/06/29 07:28:03;;;;;;;26.85;19.88;;;;;;;17.02;100.00;101412.00;4989814;28;20057;-58
2021/06/29 07:30:29;;;;;;;26.98;19.08;;;;;;;17.06;100.00;101408.97;4984646;28;20185;-57
2021/06/29 07:32:56;;;;;;;27.02;19.73;;;;;;;17.16;100.00;101413.75;4989582;28;20026;-58
2021/06/29 07:35:21;;;;;;;25.53;18.60;;;;;;;17.24;100.00;101416.78;4992486;28;20375;-58
2021/06/29 07:37:47;;;;;;;26.52;18.35;;;;;;;17.34;100.00;101411.59;4986352;28;20344;-58
2021/06/29 07:40:13;;;;;;;25.80;18.23;;;;;;;17.46;99.97;101410.75;4986802;28;20034;-58
2021/06/29 07:42:38;;;;;;;28.75;19.48;;;;;;;17.54;99.34;101411.06;4988442;28;20596;-57
2021/06/29 07:45:04;;;;;;;;;;;;;;;17.63;98.82;101403.25;4991496;28;21148;-57
2021/06/29 07:47:30;;;;;;;25.33;17.03;;;;;;;17.75;99.01;101413.19;4992197;28;19918;-58
2021/06/29 07:49:55;;;;;;;22.13;14.95;;;;;;;17.84;97.61;101411.66;4988327;28;20347;-57
2021/06/29 07:52:21;;;;;;;22.60;14.75;;;;;;;17.99;97.90;101415.13;4995756;28;20073;-57
2021/06/29 07:54:47;;;;;;;17.48;12.98;;;;;;;18.12;96.00;101410.53;4987868;28;20780;-56
2021/06/29 07:57:12;;;;;;;19.48;14.27;;;;;;;18.28;97.40;101417.50;4985671;28;20144;-59
2021/06/29 07:59:37;;;;;;;22.27;14.98;;;;;;;18.42;96.99;101411.94;4983281;28;20038;-57
2021/06/29 08:02:03;;;;;;;19.02;13.00;;;;;;;18.60;96.68;101416.94;4991104;28;20026;-55
2021/06/29 08:04:28;;;;;;;;;;;;;;;18.79;94.60;101405.59;4988204;28;20060;-56
2021/06/29 08:06:53;;;;;;;20.87;12.90;;;;;;;18.95;95.01;101410.69;4989500;28;19921;-54
2021/06/29 08:09:19;;;;;;;;;;;;;;;19.02;94.42;101420.06;4992921;28;20026;-56
2021/06/29 08:11:44;;;;;;;20.00;13.07;;;;;;;19.00;93.36;101424.75;4990958;28;19944;-56
2021/06/29 08:14:09;;;;;;;;;;;;;;;18.94;95.15;101414.38;4992357;28;20036;-57
2021/06/29 08:16:35;;;;;;;20.63;12.40;;;;;;;18.95;94.23;101411.59;4989484;28;20036;-56
2021/06/29 08:19:00;;;;;;;20.52;12.13;;;;;;;18.91;94.82;101412.75;4987963;28;20040;-54
2021/06/29 08:21:25;;;;;;;;;;;;;;;18.92;95.47;101411.81;4987292;28;20069;-55
2021/06/29 08:23:51;;;;;;;18.07;11.40;;;;;;;19.05;94.07;101411.72;4987810;28;20451;-55
2021/06/29 08:26:16;;;;;;;;;;;;;;;19.18;93.88;101410.75;4990937;28;20128;-57
2021/06/29 08:28:41;;;;;;;16.03;10.47;;;;;;;19.27;91.76;101405.47;4983418;28;20020;-55
2021/06/29 08:31:07;;;;;;;;;;;;;;;19.45;92.52;101405.91;4991294;28;20203;-57
2021/06/29 08:33:33;;;;;;;19.43;10.17;;;;;;;19.73;93.33;101411.81;4983189;28;20114;-57
2021/06/29 08:35:59;;;;;;;14.60;9.10;;;;;;;20.16;90.61;101406.59;4992095;28;20104;-58
2021/06/29 08:38:24;;;;;;;;;;;;;;;20.53;88.88;101401.69;4990053;28;20111;-57
2021/06/29 08:40:50;;;;;;;13.13;10.13;;;;;;;20.75;88.16;101407.19;5002367;28;21185;-57
2021/06/29 08:43:15;;;;;;;;;;;;;;;20.85;86.34;101403.56;4991278;28;20029;-58
2021/06/29 08:45:42;;;;;;;14.27;9.60;;;;;;;20.92;85.93;101395.75;4983834;28;19996;-58
2021/06/29 08:48:08;;;;;;;14.13;9.57;;;;;;;20.92;87.89;101398.44;4998796;28;20224;-58
2021/06/29 08:50:34;;;;;;;19.07;10.77;;;;;;;20.90;85.10;101396.88;4983489;28;20492;-58
2021/06/29 08:53:03;;;;;;;14.53;9.43;;;;;;;20.68;85.31;101407.69;4983922;28;20040;-58
2021/06/29 08:55:34;;;;;;;23.00;10.97;;;;;;;20.58;87.12;101400.44;4985254;28;20033;-59
2021/06/29 08:57:59;;;;;;;16.80;10.13;;;;;;;20.66;87.58;101406.94;4985102;28;20025;-57
2021/06/29 09:00:25;;;;;;;15.03;10.33;;;;;;;20.66;87.52;101408.78;4989106;28;20036;-58
2021/06/29 09:02:50;;;;;;;;;;;;;;;20.54;85.33;101406.13;4983363;28;20481;-58
2021/06/29 09:05:17;;;;;;;16.00;10.73;;;;;;;20.44;87.51;101417.88;4983798;28;20011;-57
2021/06/29 09:07:44;;;;;;;22.70;12.27;;;;;;;20.29;87.88;101420.00;4985600;28;20038;-58
2021/06/29 09:10:10;;;;;;;15.70;11.17;;;;;;;20.35;88.20;101423.06;4989724;28;20042;-58
2021/06/29 09:12:51;;;;;;;14.80;10.97;;;;;;;20.56;87.78;101422.25;4986198;28;20037;-58
2021/06/29 09:15:29;;;;;;;16.50;11.37;;;;;;;20.83;85.95;101419.09;4991452;28;20630;-59
2021/06/29 09:18:18;;;;;;;16.47;11.40;;;;;;;21.16;83.84;101421.75;4985107;28;21529;-58
2021/06/29 09:20:50;;;;;;;15.73;10.90;;;;;;;21.46;84.17;101418.22;4988357;28;20121;-58
2021/06/29 09:23:20;;;;;;;12.77;10.13;;;;;;;21.63;82.00;101413.19;4987287;28;20565;-59
2021/06/29 09:25:49;;;;;;;17.93;12.10;;;;;;;21.57;82.71;101414.59;4983006;28;20493;-58
2021/06/29 09:28:21;;;;;;;18.87;11.17;;;;;;;21.47;79.65;101408.22;4991790;28;20030;-58
2021/06/29 09:31:12;;;;;;;20.70;12.50;;;;;;;21.51;83.73;101412.41;4999418;28;20510;-58
2021/06/29 09:33:40;;;;;;;17.03;10.97;;;;;;;21.39;81.16;101416.16;4984965;28;20037;-59
2021/06/29 09:36:08;;;;;;;18.87;12.53;;;;;;;21.50;82.61;101406.09;4990329;28;20076;-61
2021/06/29 09:38:37;;;;;;;17.67;12.20;;;;;;;21.66;81.53;101412.91;4991574;28;20038;-58
2021/06/29 09:41:10;;;;;;;23.50;13.37;;;;;;;21.78;82.66;101400.97;4988316;28;20703;-58
2021/06/29 09:43:41;;;;;;;18.50;11.93;;;;;;;21.96;80.83;101403.88;4990572;28;20047;-58
2021/06/29 09:46:09;;;;;;;17.47;11.53;;;;;;;22.35;77.50;101399.53;4992096;28;20452;-57
2021/06/29 09:48:43;;;;;;;17.43;12.43;;;;;;;22.49;78.83;101393.69;4990931;28;20030;-58
2021/06/29 09:51:24;;;;;;;21.20;12.00;;;;;;;22.25;77.57;101396.81;4993010;28;20029;-58
2021/06/29 09:53:54;;;;;;;19.97;11.70;;;;;;;22.17;77.83;101400.19;4986978;28;20041;-59
2021/06/29 09:56:24;;;;;;;18.87;12.03;;;;;;;22.30;77.71;101406.22;4992230;28;20034;-61
2021/06/29 09:58:57;;;;;;;20.67;10.73;;;;;;;22.43;77.28;101407.88;4988245;28;20034;-59
2021/06/29 10:01:26;;;;;;;20.37;12.33;;;;;;;22.33;76.15;101409.66;4991089;28;20032;-58
2021/06/29 10:03:52;;;;;;;23.03;12.70;;;;;;;22.18;76.30;101423.66;4985818;28;20026;-57
2021/06/29 10:06:19;;;;;;;26.07;12.77;;;;;;;22.16;77.78;101422.94;4993998;28;20852;-58
2021/06/29 10:08:47;;;;;;;23.70;13.53;;;;;;;22.02;78.09;101440.50;4988038;28;20018;-58
2021/06/29 10:11:23;;;;;;;31.87;14.17;;;;;;;21.64;80.29;101432.06;4996955;28;20041;-58
2021/06/29 10:13:55;;;;;;;29.73;14.10;;;;;;;21.26;79.55;101436.25;4987715;28;20430;-58
2021/06/29 10:16:23;;;;;;;29.60;15.33;;;;;;;21.07;82.03;101441.56;4990928;28;20517;-59
2021/06/29 10:19:02;;;;;;;26.00;14.43;;;;;;;21.13;79.32;101438.31;4992026;28;20034;-58
2021/06/29 10:21:30;;;;;;;28.03;15.57;;;;;;;20.98;80.76;101456.75;4989166;28;20034;-59
2021/06/29 10:23:58;;;;;;;32.00;15.53;;;;;;;20.85;81.19;101451.50;4993762;28;20030;-59
2021/06/29 10:26:25;;;;;;;31.70;16.97;;;;;;;20.94;82.05;101450.72;5002639;28;20429;-59
2021/06/29 10:28:52;;;;;;;29.47;15.57;;;;;;;21.00;81.14;101452.06;4989416;28;20375;-60
2021/06/29 10:31:28;;;;;;;33.50;16.10;;;;;;;21.21;80.79;101452.06;4992444;28;20366;-59
2021/06/29 10:33:58;;;;;;;42.57;16.47;;;;;;;21.20;80.59;101447.63;4991881;28;20172;-58
2021/06/29 10:36:24;;;;;;;32.07;15.50;;;;;;;20.93;80.05;101449.00;4990174;28;20034;-58
2021/06/29 10:38:50;;;;;;;28.73;14.80;;;;;;;20.82;81.01;101451.78;4984807;28;20346;-59
2021/06/29 10:41:17;;;;;;;32.30;15.03;;;;;;;20.80;82.43;101453.75;4998389;28;20417;-58
2021/06/29 10:43:43;;;;;;;29.30;13.53;;;;;;;20.70;80.89;101453.63;4988457;28;20160;-58
2021/06/29 10:46:40;;;;;;;31.40;14.40;;;;;;;20.56;81.77;101452.94;4992126;28;20034;-58
2021/06/29 10:49:24;;;;;;;23.50;11.40;;;;;;;20.51;80.80;101448.91;4972841;28;20053;-57
2021/06/29 10:51:50;;;;;;;27.97;10.77;;;;;;;20.62;81.46;101446.13;4991837;28;20312;-63
2021/06/29 10:54:37;;;;;;;25.13;10.63;;;;;;;21.12;79.91;101433.88;4988697;28;20509;-59
2021/06/29 10:57:11;;;;;;;;;;;;;;;21.80;77.32;101436.97;4993684;28;20113;-58
2021/06/29 10:59:39;;;;;;;15.80;8.87;;;;;;;22.70;74.28;101434.38;4984838;28;19922;-60
2021/06/29 11:02:05;;;;;;;20.97;8.10;;;;;;;23.24;71.36;101440.19;4992746;28;20505;-58
2021/06/29 11:04:51;;;;;;;20.30;8.50;;;;;;;23.33;69.28;101438.44;4991054;28;20169;-59
2021/06/29 11:07:26;;;;;;;22.10;7.95;;;;;;;22.43;70.72;101443.22;5003706;28;20029;-58
2021/06/29 11:09:56;;;;;;;28.60;9.27;;;;;;;22.02;73.98;101445.94;4994628;28;20029;-59
2021/06/29 11:12:29;;;;;;;24.40;8.73;;;;;;;21.76;75.69;101440.13;4987853;28;20402;-58